sensor_id;sensor_type;location;lat;lon;timestamp;pressure;altitude;pressure_sealevel;temperature
20092;BMP180;10205;49.678;6.560;2023-11-21T00:01:32;99195.00;;;14.30
20092;BMP180;10205;49.678;6.560;2023-11-21T00:04:01;99208.00;;;14.30
20092;BMP180;10205;49.678;6.560;2023-11-21T00:06:28;99203.00;;;14.30
20092;BMP180;10205;49.678;6.560;2023-11-21T00:08:56;99213.00;;;14.30
20092;BMP180;10205;49.678;6.560;2023-11-21T00:11:23;99201.00;;;14.30
20092;BMP180;10205;49.678;6.560;2023-11-21T00:13:51;99205.00;;;14.20
20092;BMP180;10205;49.678;6.560;2023-11-21T00:16:18;99213.00;;;14.20
20092;BMP180;10205;49.678;6.560;2023-11-21T00:18:45;99212.00;;;14.20
20092;BMP180;10205;49.678;6.560;2023-11-21T00:21:14;99207.00;;;14.20
20092;BMP180;10205;49.678;6.560;2023-11-21T00:23:41;99208.00;;;14.20
20092;BMP180;10205;49.678;6.560;2023-11-21T00:26:08;99208.00;;;14.20
20092;BMP180;10205;49.678;6.560;2023-11-21T00:28:35;99207.00;;;14.20
20092;BMP180;10205;49.678;6.560;2023-11-21T00:31:02;99212.00;;;14.20
20092;BMP180;10205;49.678;6.560;2023-11-21T00:33:30;99204.00;;;14.30
20092;BMP180;10205;49.678;6.560;2023-11-21T00:35:57;99216.00;;;14.30
20092;BMP180;10205;49.678;6.560;2023-11-21T00:38:25;99216.00;;;14.30
20092;BMP180;10205;49.678;6.560;2023-11-21T00:40:53;99221.00;;;14.20
20092;BMP180;10205;49.678;6.560;2023-11-21T00:43:22;99221.00;;;14.20
20092;BMP180;10205;49.678;6.560;2023-11-21T00:45:49;99216.00;;;14.10
20092;BMP180;10205;49.678;6.560;2023-11-21T00:48:17;99218.00;;;14.10
20092;BMP180;10205;49.678;6.560;2023-11-21T00:50:44;99212.00;;;14.10
20092;BMP180;10205;49.678;6.560;2023-11-21T00:53:12;99220.00;;;14.10
20092;BMP180;10205;49.678;6.560;2023-11-21T00:55:40;99208.00;;;14.00
20092;BMP180;10205;49.678;6.560;2023-11-21T00:58:07;99213.00;;;14.00
20092;BMP180;10205;49.678;6.560;2023-11-21T01:00:34;99223.00;;;14.00
20092;BMP180;10205;49.678;6.560;2023-11-21T01:03:05;99222.00;;;14.00
20092;BMP180;10205;49.678;6.560;2023-11-21T01:05:33;99230.00;;;13.90
20092;BMP180;10205;49.678;6.560;2023-11-21T01:08:01;99226.00;;;13.90
20092;BMP180;10205;49.678;6.560;2023-11-21T01:10:28;99232.00;;;13.90
20092;BMP180;10205;49.678;6.560;2023-11-21T01:12:57;99247.00;;;13.90
20092;BMP180;10205;49.678;6.560;2023-11-21T01:15:24;99247.00;;;13.90
20092;BMP180;10205;49.678;6.560;2023-11-21T01:17:52;99242.00;;;13.90
20092;BMP180;10205;49.678;6.560;2023-11-21T01:20:19;99242.00;;;13.90
20092;BMP180;10205;49.678;6.560;2023-11-21T01:22:46;99246.00;;;13.90
20092;BMP180;10205;49.678;6.560;2023-11-21T01:25:15;99252.00;;;13.90
20092;BMP180;10205;49.678;6.560;2023-11-21T01:27:42;99252.00;;;13.90
20092;BMP180;10205;49.678;6.560;2023-11-21T01:30:11;99257.00;;;13.90
20092;BMP180;10205;49.678;6.560;2023-11-21T01:32:38;99263.00;;;13.90
20092;BMP180;10205;49.678;6.560;2023-11-21T01:35:08;99267.00;;;13.90
20092;BMP180;10205;49.678;6.560;2023-11-21T01:37:36;99267.00;;;13.90
20092;BMP180;10205;49.678;6.560;2023-11-21T01:40:04;99277.00;;;13.90
20092;BMP180;10205;49.678;6.560;2023-11-21T01:42:34;99277.00;;;13.90
20092;BMP180;10205;49.678;6.560;2023-11-21T01:45:02;99277.00;;;13.90
20092;BMP180;10205;49.678;6.560;2023-11-21T01:47:33;99284.00;;;14.00
20092;BMP180;10205;49.678;6.560;2023-11-21T01:50:02;99282.00;;;14.00
20092;BMP180;10205;49.678;6.560;2023-11-21T01:52:30;99284.00;;;14.00
20092;BMP180;10205;49.678;6.560;2023-11-21T01:54:59;99278.00;;;14.00
20092;BMP180;10205;49.678;6.560;2023-11-21T01:57:27;99287.00;;;14.00
20092;BMP180;10205;49.678;6.560;2023-11-21T01:59:58;99282.00;;;14.00
20092;BMP180;10205;49.678;6.560;2023-11-21T02:02:31;99287.00;;;14.00
20092;BMP180;10205;49.678;6.560;2023-11-21T02:04:58;99280.00;;;14.00
20092;BMP180;10205;49.678;6.560;2023-11-21T02:07:26;99288.00;;;13.90
20092;BMP180;10205;49.678;6.560;2023-11-21T02:09:53;99288.00;;;13.90
20092;BMP180;10205;49.678;6.560;2023-11-21T02:12:20;99290.00;;;13.90
20092;BMP180;10205;49.678;6.560;2023-11-21T02:14:47;99299.00;;;13.90
20092;BMP180;10205;49.678;6.560;2023-11-21T02:17:14;99287.00;;;13.90
20092;BMP180;10205;49.678;6.560;2023-11-21T02:19:43;99299.00;;;13.90
20092;BMP180;10205;49.678;6.560;2023-11-21T02:22:12;99291.00;;;13.90
20092;BMP180;10205;49.678;6.560;2023-11-21T02:24:41;99291.00;;;13.90
20092;BMP180;10205;49.678;6.560;2023-11-21T02:27:10;99298.00;;;13.90
20092;BMP180;10205;49.678;6.560;2023-11-21T02:29:37;99295.00;;;13.90
20092;BMP180;10205;49.678;6.560;2023-11-21T02:32:05;99300.00;;;13.90
20092;BMP180;10205;49.678;6.560;2023-11-21T02:34:32;99311.00;;;13.90
20092;BMP180;10205;49.678;6.560;2023-11-21T02:36:59;99304.00;;;13.90
20092;BMP180;10205;49.678;6.560;2023-11-21T02:39:27;99307.00;;;13.80
20092;BMP180;10205;49.678;6.560;2023-11-21T02:41:55;99305.00;;;13.80
20092;BMP180;10205;49.678;6.560;2023-11-21T02:44:22;99313.00;;;13.80
20092;BMP180;10205;49.678;6.560;2023-11-21T02:46:49;99316.00;;;13.80
20092;BMP180;10205;49.678;6.560;2023-11-21T02:49:16;99318.00;;;13.70
20092;BMP180;10205;49.678;6.560;2023-11-21T02:51:43;99346.00;;;13.70
20092;BMP180;10205;49.678;6.560;2023-11-21T02:54:11;99336.00;;;13.60
20092;BMP180;10205;49.678;6.560;2023-11-21T02:56:38;99338.00;;;13.60
20092;BMP180;10205;49.678;6.560;2023-11-21T02:59:07;99331.00;;;13.60
20092;BMP180;10205;49.678;6.560;2023-11-21T03:01:34;99344.00;;;13.60
20092;BMP180;10205;49.678;6.560;2023-11-21T03:04:02;99335.00;;;13.60
20092;BMP180;10205;49.678;6.560;2023-11-21T03:06:29;99338.00;;;13.60
20092;BMP180;10205;49.678;6.560;2023-11-21T03:08:56;99336.00;;;13.60
20092;BMP180;10205;49.678;6.560;2023-11-21T03:11:23;99335.00;;;13.60
20092;BMP180;10205;49.678;6.560;2023-11-21T03:13:50;99347.00;;;13.50
20092;BMP180;10205;49.678;6.560;2023-11-21T03:16:18;99351.00;;;13.50
20092;BMP180;10205;49.678;6.560;2023-11-21T03:18:46;99345.00;;;13.50
20092;BMP180;10205;49.678;6.560;2023-11-21T03:21:13;99358.00;;;13.50
20092;BMP180;10205;49.678;6.560;2023-11-21T03:23:40;99356.00;;;13.60
20092;BMP180;10205;49.678;6.560;2023-11-21T03:26:12;99362.00;;;13.60
20092;BMP180;10205;49.678;6.560;2023-11-21T03:28:40;99367.00;;;13.60
20092;BMP180;10205;49.678;6.560;2023-11-21T03:31:07;99365.00;;;13.70
20092;BMP180;10205;49.678;6.560;2023-11-21T03:33:36;99369.00;;;13.70
20092;BMP180;10205;49.678;6.560;2023-11-21T03:36:03;99373.00;;;13.70
20092;BMP180;10205;49.678;6.560;2023-11-21T03:38:31;99365.00;;;13.80
20092;BMP180;10205;49.678;6.560;2023-11-21T03:40:58;99365.00;;;13.80
20092;BMP180;10205;49.678;6.560;2023-11-21T03:43:25;99365.00;;;13.80
20092;BMP180;10205;49.678;6.560;2023-11-21T03:45:52;99376.00;;;13.90
20092;BMP180;10205;49.678;6.560;2023-11-21T03:48:19;99387.00;;;13.90
20092;BMP180;10205;49.678;6.560;2023-11-21T03:50:48;99382.00;;;13.90
20092;BMP180;10205;49.678;6.560;2023-11-21T03:53:15;99391.00;;;13.90
20092;BMP180;10205;49.678;6.560;2023-11-21T03:55:42;99387.00;;;13.90
20092;BMP180;10205;49.678;6.560;2023-11-21T03:58:09;99391.00;;;13.90
20092;BMP180;10205;49.678;6.560;2023-11-21T04:00:36;99400.00;;;13.90
20092;BMP180;10205;49.678;6.560;2023-11-21T04:03:03;99398.00;;;13.90
20092;BMP180;10205;49.678;6.560;2023-11-21T04:05:30;99389.00;;;13.90
20092;BMP180;10205;49.678;6.560;2023-11-21T04:07:59;99403.00;;;13.80
20092;BMP180;10205;49.678;6.560;2023-11-21T04:10:26;99403.00;;;13.80
20092;BMP180;10205;49.678;6.560;2023-11-21T04:12:54;99400.00;;;13.80
20092;BMP180;10205;49.678;6.560;2023-11-21T04:15:21;99410.00;;;13.80
20092;BMP180;10205;49.678;6.560;2023-11-21T04:17:48;99406.00;;;13.80
20092;BMP180;10205;49.678;6.560;2023-11-21T04:20:15;99402.00;;;13.70
20092;BMP180;10205;49.678;6.560;2023-11-21T04:22:44;99414.00;;;13.70
20092;BMP180;10205;49.678;6.560;2023-11-21T04:25:15;99426.00;;;13.70
20092;BMP180;10205;49.678;6.560;2023-11-21T04:27:44;99430.00;;;13.60
20092;BMP180;10205;49.678;6.560;2023-11-21T04:30:12;99441.00;;;13.60
20092;BMP180;10205;49.678;6.560;2023-11-21T04:32:42;99445.00;;;13.60
20092;BMP180;10205;49.678;6.560;2023-11-21T04:35:09;99441.00;;;13.60
20092;BMP180;10205;49.678;6.560;2023-11-21T04:37:37;99441.00;;;13.60
20092;BMP180;10205;49.678;6.560;2023-11-21T04:40:05;99443.00;;;13.60
20092;BMP180;10205;49.678;6.560;2023-11-21T04:42:35;99452.00;;;13.70
20092;BMP180;10205;49.678;6.560;2023-11-21T04:45:03;99450.00;;;13.70
20092;BMP180;10205;49.678;6.560;2023-11-21T04:47:34;99462.00;;;13.70
20092;BMP180;10205;49.678;6.560;2023-11-21T04:50:02;99463.00;;;13.70
20092;BMP180;10205;49.678;6.560;2023-11-21T04:52:30;99467.00;;;13.70
20092;BMP180;10205;49.678;6.560;2023-11-21T04:54:58;99456.00;;;13.80
20092;BMP180;10205;49.678;6.560;2023-11-21T04:57:27;99471.00;;;13.80
20092;BMP180;10205;49.678;6.560;2023-11-21T04:59:55;99468.00;;;13.80
20092;BMP180;10205;49.678;6.560;2023-11-21T05:02:22;99464.00;;;13.80
20092;BMP180;10205;49.678;6.560;2023-11-21T05:04:49;99467.00;;;13.80
20092;BMP180;10205;49.678;6.560;2023-11-21T05:07:16;99467.00;;;13.80
20092;BMP180;10205;49.678;6.560;2023-11-21T05:09:44;99468.00;;;13.80
20092;BMP180;10205;49.678;6.560;2023-11-21T05:12:12;99464.00;;;13.80
20092;BMP180;10205;49.678;6.560;2023-11-21T05:14:40;99457.00;;;13.80
20092;BMP180;10205;49.678;6.560;2023-11-21T05:17:09;99449.00;;;13.80
20092;BMP180;10205;49.678;6.560;2023-11-21T05:19:36;99468.00;;;13.90
20092;BMP180;10205;49.678;6.560;2023-11-21T05:22:03;99472.00;;;13.90
20092;BMP180;10205;49.678;6.560;2023-11-21T05:24:31;99474.00;;;13.80
20092;BMP180;10205;49.678;6.560;2023-11-21T05:26:58;99470.00;;;13.90
20092;BMP180;10205;49.678;6.560;2023-11-21T05:29:25;99460.00;;;13.90
20092;BMP180;10205;49.678;6.560;2023-11-21T05:31:52;99473.00;;;13.90
20092;BMP180;10205;49.678;6.560;2023-11-21T05:34:21;99479.00;;;13.90
20092;BMP180;10205;49.678;6.560;2023-11-21T05:36:50;99488.00;;;13.90
20092;BMP180;10205;49.678;6.560;2023-11-21T05:39:17;99494.00;;;13.80
20092;BMP180;10205;49.678;6.560;2023-11-21T05:41:45;99476.00;;;13.80
20092;BMP180;10205;49.678;6.560;2023-11-21T05:44:12;99496.00;;;13.80
20092;BMP180;10205;49.678;6.560;2023-11-21T05:46:40;99492.00;;;13.80
20092;BMP180;10205;49.678;6.560;2023-11-21T05:49:09;99490.00;;;13.80
20092;BMP180;10205;49.678;6.560;2023-11-21T05:51:37;99507.00;;;13.80
20092;BMP180;10205;49.678;6.560;2023-11-21T05:54:05;99506.00;;;13.70
20092;BMP180;10205;49.678;6.560;2023-11-21T05:56:32;99505.00;;;13.70
20092;BMP180;10205;49.678;6.560;2023-11-21T05:58:59;99507.00;;;13.60
20092;BMP180;10205;49.678;6.560;2023-11-21T06:01:26;99511.00;;;13.60
20092;BMP180;10205;49.678;6.560;2023-11-21T06:03:54;99511.00;;;13.50
20092;BMP180;10205;49.678;6.560;2023-11-21T06:06:21;99508.00;;;13.50
20092;BMP180;10205;49.678;6.560;2023-11-21T06:08:51;99514.00;;;13.50
20092;BMP180;10205;49.678;6.560;2023-11-21T06:11:19;99524.00;;;13.60
20092;BMP180;10205;49.678;6.560;2023-11-21T06:13:46;99537.00;;;13.60
20092;BMP180;10205;49.678;6.560;2023-11-21T06:16:13;99542.00;;;13.60
20092;BMP180;10205;49.678;6.560;2023-11-21T06:18:42;99543.00;;;13.60
20092;BMP180;10205;49.678;6.560;2023-11-21T06:21:10;99539.00;;;13.60
20092;BMP180;10205;49.678;6.560;2023-11-21T06:23:38;99534.00;;;13.60
20092;BMP180;10205;49.678;6.560;2023-11-21T06:26:06;99544.00;;;13.60
20092;BMP180;10205;49.678;6.560;2023-11-21T06:28:35;99548.00;;;13.60
20092;BMP180;10205;49.678;6.560;2023-11-21T06:31:03;99548.00;;;13.60
20092;BMP180;10205;49.678;6.560;2023-11-21T06:33:31;99550.00;;;13.60
20092;BMP180;10205;49.678;6.560;2023-11-21T06:35:58;99565.00;;;13.70
20092;BMP180;10205;49.678;6.560;2023-11-21T06:38:25;99564.00;;;13.70
20092;BMP180;10205;49.678;6.560;2023-11-21T06:40:55;99564.00;;;13.70
20092;BMP180;10205;49.678;6.560;2023-11-21T06:43:24;99569.00;;;13.70
20092;BMP180;10205;49.678;6.560;2023-11-21T06:45:52;99569.00;;;13.70
20092;BMP180;10205;49.678;6.560;2023-11-21T06:48:21;99567.00;;;13.70
20092;BMP180;10205;49.678;6.560;2023-11-21T06:50:48;99577.00;;;13.70
20092;BMP180;10205;49.678;6.560;2023-11-21T06:53:15;99593.00;;;13.70
20092;BMP180;10205;49.678;6.560;2023-11-21T06:55:42;99598.00;;;13.70
20092;BMP180;10205;49.678;6.560;2023-11-21T06:58:09;99602.00;;;13.70
20092;BMP180;10205;49.678;6.560;2023-11-21T07:00:37;99603.00;;;13.70
20092;BMP180;10205;49.678;6.560;2023-11-21T07:03:04;99622.00;;;13.70
20092;BMP180;10205;49.678;6.560;2023-11-21T07:05:31;99618.00;;;13.70
20092;BMP180;10205;49.678;6.560;2023-11-21T07:07:58;99621.00;;;13.70
20092;BMP180;10205;49.678;6.560;2023-11-21T07:10:30;99621.00;;;13.70
20092;BMP180;10205;49.678;6.560;2023-11-21T07:12:57;99634.00;;;13.70
20092;BMP180;10205;49.678;6.560;2023-11-21T07:15:24;99633.00;;;13.70
20092;BMP180;10205;49.678;6.560;2023-11-21T07:17:53;99637.00;;;13.70
20092;BMP180;10205;49.678;6.560;2023-11-21T07:20:20;99656.00;;;13.70
20092;BMP180;10205;49.678;6.560;2023-11-21T07:22:48;99663.00;;;13.70
20092;BMP180;10205;49.678;6.560;2023-11-21T07:25:15;99662.00;;;13.70
20092;BMP180;10205;49.678;6.560;2023-11-21T07:27:42;99660.00;;;13.70
20092;BMP180;10205;49.678;6.560;2023-11-21T07:30:12;99661.00;;;13.70
20092;BMP180;10205;49.678;6.560;2023-11-21T07:32:39;99663.00;;;13.70
20092;BMP180;10205;49.678;6.560;2023-11-21T07:35:08;99659.00;;;13.70
20092;BMP180;10205;49.678;6.560;2023-11-21T07:37:36;99668.00;;;13.70
20092;BMP180;10205;49.678;6.560;2023-11-21T07:40:04;99657.00;;;13.60
20092;BMP180;10205;49.678;6.560;2023-11-21T07:42:37;99657.00;;;13.60
20092;BMP180;10205;49.678;6.560;2023-11-21T07:45:06;99677.00;;;13.60
20092;BMP180;10205;49.678;6.560;2023-11-21T07:47:34;99674.00;;;13.60
20092;BMP180;10205;49.678;6.560;2023-11-21T07:50:02;99679.00;;;13.60
20092;BMP180;10205;49.678;6.560;2023-11-21T07:52:31;99687.00;;;13.60
20092;BMP180;10205;49.678;6.560;2023-11-21T07:54:58;99685.00;;;13.60
20092;BMP180;10205;49.678;6.560;2023-11-21T07:57:25;99693.00;;;13.60
20092;BMP180;10205;49.678;6.560;2023-11-21T07:59:52;99698.00;;;13.60
20092;BMP180;10205;49.678;6.560;2023-11-21T08:02:21;99698.00;;;13.60
20092;BMP180;10205;49.678;6.560;2023-11-21T08:04:48;99712.00;;;13.60
20092;BMP180;10205;49.678;6.560;2023-11-21T08:07:17;99692.00;;;13.60
20092;BMP180;10205;49.678;6.560;2023-11-21T08:09:45;99706.00;;;13.60
20092;BMP180;10205;49.678;6.560;2023-11-21T08:12:15;99707.00;;;13.60
20092;BMP180;10205;49.678;6.560;2023-11-21T08:14:42;99706.00;;;13.60
20092;BMP180;10205;49.678;6.560;2023-11-21T08:17:10;99719.00;;;13.60
20092;BMP180;10205;49.678;6.560;2023-11-21T08:19:37;99717.00;;;13.60
20092;BMP180;10205;49.678;6.560;2023-11-21T08:22:04;99703.00;;;13.60
20092;BMP180;10205;49.678;6.560;2023-11-21T08:24:33;99713.00;;;13.60
20092;BMP180;10205;49.678;6.560;2023-11-21T08:27:02;99721.00;;;13.60
20092;BMP180;10205;49.678;6.560;2023-11-21T08:29:31;99719.00;;;13.60
20092;BMP180;10205;49.678;6.560;2023-11-21T08:31:58;99723.00;;;13.60
20092;BMP180;10205;49.678;6.560;2023-11-21T08:34:25;99727.00;;;13.60
20092;BMP180;10205;49.678;6.560;2023-11-21T08:36:54;99730.00;;;13.60
20092;BMP180;10205;49.678;6.560;2023-11-21T08:39:23;99724.00;;;13.60
20092;BMP180;10205;49.678;6.560;2023-11-21T08:41:50;99719.00;;;13.60
20092;BMP180;10205;49.678;6.560;2023-11-21T08:44:18;99714.00;;;13.60
20092;BMP180;10205;49.678;6.560;2023-11-21T08:46:45;99721.00;;;13.60
20092;BMP180;10205;49.678;6.560;2023-11-21T08:49:13;99721.00;;;13.60
20092;BMP180;10205;49.678;6.560;2023-11-21T08:51:41;99728.00;;;13.60
20092;BMP180;10205;49.678;6.560;2023-11-21T08:54:08;99737.00;;;13.60
20092;BMP180;10205;49.678;6.560;2023-11-21T08:56:35;99727.00;;;13.60
20092;BMP180;10205;49.678;6.560;2023-11-21T08:59:02;99741.00;;;13.60
20092;BMP180;10205;49.678;6.560;2023-11-21T09:01:31;99746.00;;;13.60
20092;BMP180;10205;49.678;6.560;2023-11-21T09:03:58;99755.00;;;13.60
20092;BMP180;10205;49.678;6.560;2023-11-21T09:06:27;99750.00;;;13.60
20092;BMP180;10205;49.678;6.560;2023-11-21T09:08:54;99756.00;;;13.50
20092;BMP180;10205;49.678;6.560;2023-11-21T09:11:21;99760.00;;;13.50
20092;BMP180;10205;49.678;6.560;2023-11-21T09:13:53;99760.00;;;13.50
20092;BMP180;10205;49.678;6.560;2023-11-21T09:16:20;99760.00;;;13.50
20092;BMP180;10205;49.678;6.560;2023-11-21T09:18:48;99765.00;;;13.40
20092;BMP180;10205;49.678;6.560;2023-11-21T09:21:16;99768.00;;;13.40
20092;BMP180;10205;49.678;6.560;2023-11-21T09:23:44;99770.00;;;13.40
20092;BMP180;10205;49.678;6.560;2023-11-21T09:26:11;99774.00;;;13.40
20092;BMP180;10205;49.678;6.560;2023-11-21T09:28:39;99769.00;;;13.40
20092;BMP180;10205;49.678;6.560;2023-11-21T09:31:08;99780.00;;;13.40
20092;BMP180;10205;49.678;6.560;2023-11-21T09:33:35;99782.00;;;13.40
20092;BMP180;10205;49.678;6.560;2023-11-21T09:36:11;99792.00;;;13.40
20092;BMP180;10205;49.678;6.560;2023-11-21T09:38:39;99791.00;;;13.40
20092;BMP180;10205;49.678;6.560;2023-11-21T09:41:15;99794.00;;;13.40
20092;BMP180;10205;49.678;6.560;2023-11-21T09:43:47;99795.00;;;13.40
20092;BMP180;10205;49.678;6.560;2023-11-21T09:46:23;99799.00;;;13.30
20092;BMP180;10205;49.678;6.560;2023-11-21T09:48:51;99801.00;;;13.30
20092;BMP180;10205;49.678;6.560;2023-11-21T09:51:24;99809.00;;;13.30
20092;BMP180;10205;49.678;6.560;2023-11-21T09:53:53;99806.00;;;13.30
20092;BMP180;10205;49.678;6.560;2023-11-21T09:56:20;99807.00;;;13.30
20092;BMP180;10205;49.678;6.560;2023-11-21T09:58:52;99800.00;;;13.30
20092;BMP180;10205;49.678;6.560;2023-11-21T10:01:20;99802.00;;;13.30
20092;BMP180;10205;49.678;6.560;2023-11-21T10:03:48;99822.00;;;13.40
20092;BMP180;10205;49.678;6.560;2023-11-21T10:06:17;99819.00;;;13.30
20092;BMP180;10205;49.678;6.560;2023-11-21T10:08:47;99817.00;;;13.40
20092;BMP180;10205;49.678;6.560;2023-11-21T10:11:19;99837.00;;;13.40
20092;BMP180;10205;49.678;6.560;2023-11-21T10:13:52;99825.00;;;13.40
20092;BMP180;10205;49.678;6.560;2023-11-21T10:16:21;99827.00;;;13.40
20092;BMP180;10205;49.678;6.560;2023-11-21T10:18:52;99826.00;;;13.40
20092;BMP180;10205;49.678;6.560;2023-11-21T10:21:21;99826.00;;;13.40
20092;BMP180;10205;49.678;6.560;2023-11-21T10:23:52;99826.00;;;13.40
20092;BMP180;10205;49.678;6.560;2023-11-21T10:26:22;99828.00;;;13.40
20092;BMP180;10205;49.678;6.560;2023-11-21T10:28:57;99826.00;;;13.40
20092;BMP180;10205;49.678;6.560;2023-11-21T10:31:25;99830.00;;;13.40
20092;BMP180;10205;49.678;6.560;2023-11-21T10:33:53;99829.00;;;13.50
20092;BMP180;10205;49.678;6.560;2023-11-21T10:36:26;99829.00;;;13.50
20092;BMP180;10205;49.678;6.560;2023-11-21T10:38:56;99828.00;;;13.50
20092;BMP180;10205;49.678;6.560;2023-11-21T10:41:24;99824.00;;;13.50
20092;BMP180;10205;49.678;6.560;2023-11-21T10:43:53;99831.00;;;13.50
20092;BMP180;10205;49.678;6.560;2023-11-21T10:46:22;99837.00;;;13.50
20092;BMP180;10205;49.678;6.560;2023-11-21T10:48:53;99835.00;;;13.60
20092;BMP180;10205;49.678;6.560;2023-11-21T10:51:22;99828.00;;;13.60
20092;BMP180;10205;49.678;6.560;2023-11-21T10:53:51;99829.00;;;13.60
20092;BMP180;10205;49.678;6.560;2023-11-21T10:56:23;99827.00;;;13.60
20092;BMP180;10205;49.678;6.560;2023-11-21T10:58:50;99831.00;;;13.60
20092;BMP180;10205;49.678;6.560;2023-11-21T11:01:19;99826.00;;;13.60
20092;BMP180;10205;49.678;6.560;2023-11-21T11:03:47;99848.00;;;13.70
20092;BMP180;10205;49.678;6.560;2023-11-21T11:06:16;99831.00;;;13.70
20092;BMP180;10205;49.678;6.560;2023-11-21T11:08:44;99838.00;;;13.70
20092;BMP180;10205;49.678;6.560;2023-11-21T11:11:12;99825.00;;;13.80
20092;BMP180;10205;49.678;6.560;2023-11-21T11:13:43;99846.00;;;13.80
20092;BMP180;10205;49.678;6.560;2023-11-21T11:16:13;99835.00;;;13.80
20092;BMP180;10205;49.678;6.560;2023-11-21T11:18:43;99827.00;;;13.80
20092;BMP180;10205;49.678;6.560;2023-11-21T11:21:27;99833.00;;;13.80
20092;BMP180;10205;49.678;6.560;2023-11-21T11:24:22;99829.00;;;13.90
20092;BMP180;10205;49.678;6.560;2023-11-21T11:27:06;99826.00;;;13.90
20092;BMP180;10205;49.678;6.560;2023-11-21T11:29:55;99824.00;;;13.90
20092;BMP180;10205;49.678;6.560;2023-11-21T11:32:40;99820.00;;;13.90
20092;BMP180;10205;49.678;6.560;2023-11-21T11:35:19;99821.00;;;13.90
20092;BMP180;10205;49.678;6.560;2023-11-21T11:37:48;99821.00;;;13.90
20092;BMP180;10205;49.678;6.560;2023-11-21T11:40:15;99829.00;;;13.90
20092;BMP180;10205;49.678;6.560;2023-11-21T11:42:56;99836.00;;;14.00
20092;BMP180;10205;49.678;6.560;2023-11-21T11:45:33;99827.00;;;14.00
20092;BMP180;10205;49.678;6.560;2023-11-21T11:48:02;99830.00;;;14.00
20092;BMP180;10205;49.678;6.560;2023-11-21T11:50:30;99831.00;;;14.00
20092;BMP180;10205;49.678;6.560;2023-11-21T11:53:14;99832.00;;;14.10
20092;BMP180;10205;49.678;6.560;2023-11-21T11:55:41;99834.00;;;14.10
20092;BMP180;10205;49.678;6.560;2023-11-21T11:58:08;99838.00;;;14.10
20092;BMP180;10205;49.678;6.560;2023-11-21T12:00:37;99838.00;;;14.10
20092;BMP180;10205;49.678;6.560;2023-11-21T12:03:10;99838.00;;;14.10
20092;BMP180;10205;49.678;6.560;2023-11-21T12:05:40;99827.00;;;14.20
20092;BMP180;10205;49.678;6.560;2023-11-21T12:08:11;99834.00;;;14.20
20092;BMP180;10205;49.678;6.560;2023-11-21T12:10:39;99836.00;;;14.20
20092;BMP180;10205;49.678;6.560;2023-11-21T12:13:08;99830.00;;;14.20
20092;BMP180;10205;49.678;6.560;2023-11-21T12:15:40;99836.00;;;14.30
20092;BMP180;10205;49.678;6.560;2023-11-21T12:18:07;99836.00;;;14.20
20092;BMP180;10205;49.678;6.560;2023-11-21T12:20:34;99835.00;;;14.20
20092;BMP180;10205;49.678;6.560;2023-11-21T12:23:05;99839.00;;;14.30
20092;BMP180;10205;49.678;6.560;2023-11-21T12:25:32;99847.00;;;14.30
20092;BMP180;10205;49.678;6.560;2023-11-21T12:28:01;99845.00;;;14.30
20092;BMP180;10205;49.678;6.560;2023-11-21T12:30:31;99845.00;;;14.30
20092;BMP180;10205;49.678;6.560;2023-11-21T12:33:00;99852.00;;;14.30
20092;BMP180;10205;49.678;6.560;2023-11-21T12:35:31;99855.00;;;14.40
20092;BMP180;10205;49.678;6.560;2023-11-21T12:38:01;99865.00;;;14.40
20092;BMP180;10205;49.678;6.560;2023-11-21T12:40:29;99853.00;;;14.40
20092;BMP180;10205;49.678;6.560;2023-11-21T12:42:58;99862.00;;;14.40
20092;BMP180;10205;49.678;6.560;2023-11-21T12:45:27;99872.00;;;14.40
20092;BMP180;10205;49.678;6.560;2023-11-21T12:47:57;99874.00;;;14.40
20092;BMP180;10205;49.678;6.560;2023-11-21T12:50:29;99891.00;;;14.40
20092;BMP180;10205;49.678;6.560;2023-11-21T12:53:00;99873.00;;;14.40
20092;BMP180;10205;49.678;6.560;2023-11-21T12:55:31;99876.00;;;14.50
20092;BMP180;10205;49.678;6.560;2023-11-21T12:58:02;99876.00;;;14.50
20092;BMP180;10205;49.678;6.560;2023-11-21T13:00:36;99867.00;;;14.50
20092;BMP180;10205;49.678;6.560;2023-11-21T13:03:05;99868.00;;;14.50
20092;BMP180;10205;49.678;6.560;2023-11-21T13:05:37;99879.00;;;14.50
20092;BMP180;10205;49.678;6.560;2023-11-21T13:08:07;99879.00;;;14.50
20092;BMP180;10205;49.678;6.560;2023-11-21T13:10:36;99872.00;;;14.50
20092;BMP180;10205;49.678;6.560;2023-11-21T13:13:10;99883.00;;;14.60
20092;BMP180;10205;49.678;6.560;2023-11-21T13:15:48;99891.00;;;14.60
20092;BMP180;10205;49.678;6.560;2023-11-21T13:18:16;99884.00;;;14.60
20092;BMP180;10205;49.678;6.560;2023-11-21T13:20:45;99878.00;;;14.60
20092;BMP180;10205;49.678;6.560;2023-11-21T13:23:15;99885.00;;;14.60
20092;BMP180;10205;49.678;6.560;2023-11-21T13:25:43;99882.00;;;14.60
20092;BMP180;10205;49.678;6.560;2023-11-21T13:28:11;99888.00;;;14.60
20092;BMP180;10205;49.678;6.560;2023-11-21T13:30:41;99880.00;;;14.60
20092;BMP180;10205;49.678;6.560;2023-11-21T13:33:10;99890.00;;;14.60
20092;BMP180;10205;49.678;6.560;2023-11-21T13:35:44;99887.00;;;14.60
20092;BMP180;10205;49.678;6.560;2023-11-21T13:38:17;99886.00;;;14.60
20092;BMP180;10205;49.678;6.560;2023-11-21T13:40:49;99898.00;;;14.60
20092;BMP180;10205;49.678;6.560;2023-11-21T13:43:21;99902.00;;;14.60
20092;BMP180;10205;49.678;6.560;2023-11-21T13:45:52;99910.00;;;14.60
20092;BMP180;10205;49.678;6.560;2023-11-21T13:48:26;99918.00;;;14.60
20092;BMP180;10205;49.678;6.560;2023-11-21T13:51:01;99900.00;;;14.70
20092;BMP180;10205;49.678;6.560;2023-11-21T13:53:38;99902.00;;;14.60
20092;BMP180;10205;49.678;6.560;2023-11-21T13:56:08;99908.00;;;14.60
20092;BMP180;10205;49.678;6.560;2023-11-21T13:58:36;99911.00;;;14.60
20092;BMP180;10205;49.678;6.560;2023-11-21T14:01:10;99911.00;;;14.70
20092;BMP180;10205;49.678;6.560;2023-11-21T14:03:54;99912.00;;;14.60
20092;BMP180;10205;49.678;6.560;2023-11-21T14:06:28;99920.00;;;14.60
20092;BMP180;10205;49.678;6.560;2023-11-21T14:09:00;99922.00;;;14.70
20092;BMP180;10205;49.678;6.560;2023-11-21T14:11:31;99922.00;;;14.60
20092;BMP180;10205;49.678;6.560;2023-11-21T14:14:00;99915.00;;;14.60
20092;BMP180;10205;49.678;6.560;2023-11-21T14:16:28;99919.00;;;14.70
20092;BMP180;10205;49.678;6.560;2023-11-21T14:18:55;99914.00;;;14.70